Главная страница
METAR-TAF:

METAR-TAF

Аэропорты :

Пьештяни

Пьештяны, Словакия

широта: 48-37-30N, долгота: 017-49-43E, высота над уровнем моря: 163 м

Текущие метеонаблюдения

Эта сводка был подготовлена 42 минут назад, в 01:00 UTC
Ветер 9 Узел от северный
Температура 10°C
Влажность 87%
Давление 1023 hPa
Видимость: 4500 м
дымка

METAR: LZPP 200100Z AUTO 35009KT 4500 BR NCD 10/08 Q1023

Время: 03:42 (01:42 UTC)

Прогноз

Эта сводка был подготовлена 8 часа и 42 минут назад, в 17:00 UTC
Прогноз действительный с 19-го 18 UTC до 20-го 03 UTC
Ветер 6 Узел от северный
Видимость 10 км и более
Нет облачности ниже 1500 м, и нет кучево-дождевой облачности
временами
С 19-го 18 UTC до 19-го 21 UTC
Ветер 10 Узел от северный

TAF: LZPP 191700Z 1918/2003 01006KT CAVOK TEMPO 1918/1921 35010KT

Метеонаблюдения и прогнозы для более 4000 аэропортов (сводки METAR и TAF).

Имеющиеся станции представлены на карте желтыми и красными точками.

Чтобы увидеть название станции, наведите на нее мышь.

Затем щелкните, чтобы увидеть метеонаблюдения и метеопрогнозы.

Управление картой: чтобы увеличить масштаб, щелкните зеленые кнопки с черным крестиком; чтобы уменьшить масштаб, щелкните зеленую кнопку с тире; для просмотра соседних карт щелкайте зеленые стрелки.


METAR-TAF: